Summit, Minnesota
Current Conditions -  °F | °C
As of 10:11 PM on Sunday 23 Nov 2014 (Local Time) from KVWU Reporting Station
Unknown Precip Unknown Precip  
Wind Chill: 17°   Ceiling: 600
Heat Index: 27°   Visibility: 7mi
Dew Point: 27°   Wind: 9mph
Humidity: 100%   Direction: 270°W
Pressure: 29.42"   Gusts: 17mph
Location:  47.7306°N, 94.3762°W
Report Text: KVWU 240411Z AUTO 27008G15KT 7SM UP OVC006 M03/M03 A2942 RMK AO2
Loading
Personal Weather Stations






























Interactive Weather Map New forecast layout! Learn more

10-Day Weather Forecast

Advertisements
Track Severe Weather on mobile